Time;durP1;ratioP1;P1;durP2;ratioP2;P2;SDS_P1;SDS_P2;PMS_P1;PMS_P2;Temp;Humidity;BMP_temperature;BMP_pressure;BME280_temperature;BME280_humidity;BME280_pressure;Samples;Min_cycle;Max_cycle;Signal;HPM_P1;HPM_P2
2022/01/11 00:00:43;;;;;;;1.10;1.10;;;2.80;98.00;;;;;;5115490;28;20465;-68
2022/01/11 00:03:10;;;;;;;1.93;1.83;;;2.70;98.00;;;;;;5115608;28;20496;-70
2022/01/11 00:05:44;;;;;;;1.30;1.30;;;2.60;98.00;;;;;;5115480;28;20490;-67
2022/01/11 00:08:14;;;;;;;1.97;1.90;;;2.60;98.00;;;;;;5115304;28;21221;-67
2022/01/11 00:10:48;;;;;;;1.67;1.50;;;2.60;98.00;;;;;;5115487;28;20829;-68
2022/01/11 00:13:16;;;;;;;1.57;1.50;;;2.60;98.00;;;;;;5115232;28;20511;-68
2022/01/11 00:15:44;;;;;;;1.20;1.20;;;2.50;98.00;;;;;;5113959;28;20470;-68
2022/01/11 00:18:12;;;;;;;1.83;1.33;;;2.50;98.00;;;;;;5115040;28;20482;-67
2022/01/11 00:20:39;;;;;;;1.20;1.20;;;2.50;98.00;;;;;;5113836;28;20454;-68
2022/01/11 00:25:54;;;;;;;1.60;1.50;;;2.60;98.00;;;;;;5114846;28;20445;-67
2022/01/11 00:28:25;;;;;;;1.50;1.40;;;2.80;98.00;;;;;;5114714;28;20989;-67
2022/01/11 00:30:52;;;;;;;1.70;1.53;;;2.90;98.00;;;;;;5115072;28;20965;-68
2022/01/11 00:33:25;;;;;;;4.37;1.97;;;2.90;98.00;;;;;;5114676;28;20527;-69
2022/01/11 00:35:59;;;;;;;4.40;2.83;;;2.80;98.00;;;;;;5114537;28;20527;-67
2022/01/11 00:38:27;;;;;;;2.23;2.03;;;2.70;98.00;;;;;;5114422;28;20487;-67
2022/01/11 00:40:58;;;;;;;1.60;1.50;;;2.70;98.00;;;;;;5114509;28;20879;-68
2022/01/11 00:43:26;;;;;;;4.10;1.67;;;2.70;98.00;;;;;;5114536;28;20867;-68
2022/01/11 00:45:55;;;;;;;1.73;1.70;;;2.70;98.00;;;;;;5114341;28;20458;-68
2022/01/11 00:48:23;;;;;;;2.47;2.27;;;2.60;98.00;;;;;;5114301;28;20534;-68
2022/01/11 00:50:51;;;;;;;3.90;3.10;;;2.50;98.00;;;;;;5114086;28;20487;-67
2022/01/11 00:53:19;;;;;;;2.83;2.27;;;2.50;98.00;;;;;;5114316;28;20459;-68
2022/01/11 00:55:47;;;;;;;1.20;1.10;;;2.40;98.00;;;;;;5114324;28;20542;-67
2022/01/11 00:58:17;;;;;;;2.60;2.07;;;2.40;98.00;;;;;;5113787;28;20486;-68
2022/01/11 01:00:45;;;;;;;1.70;1.50;;;2.40;98.00;;;;;;5114301;28;20789;-68
2022/01/11 01:03:12;;;;;;;1.97;1.67;;;2.30;98.00;;;;;;5114336;28;20781;-68
2022/01/11 01:05:40;;;;;;;2.50;1.60;;;2.30;98.00;;;;;;5114028;28;20458;-68
2022/01/11 01:08:08;;;;;;;1.80;1.73;;;2.40;98.00;;;;;;5114209;28;20459;-68
2022/01/11 01:10:40;;;;;;;1.77;1.33;;;2.50;98.00;;;;;;5114162;28;20542;-68
2022/01/11 01:13:09;;;;;;;2.37;2.17;;;2.60;98.00;;;;;;5114117;28;20452;-67
2022/01/11 01:15:38;;;;;;;2.10;1.50;;;2.70;98.00;;;;;;5114064;28;21267;-68
2022/01/11 01:18:10;;;;;;;1.70;1.60;;;2.70;98.00;;;;;;5114014;28;20529;-67
2022/01/11 01:20:37;;;;;;;1.90;1.57;;;2.70;98.00;;;;;;5112757;28;20508;-67
2022/01/11 01:23:05;;;;;;;2.57;2.13;;;2.70;98.00;;;;;;5113917;28;20833;-68
2022/01/11 01:25:32;;;;;;;1.20;1.20;;;2.70;98.00;;;;;;5113898;28;20455;-68
2022/01/11 01:28:00;;;;;;;2.07;1.93;;;2.70;98.00;;;;;;5113895;28;20518;-67
2022/01/11 01:30:27;;;;;;;2.20;1.80;;;2.60;98.00;;;;;;5113721;28;20491;-67
2022/01/11 01:32:56;;;;;;;1.40;1.40;;;2.60;98.00;;;;;;5113974;28;20546;-67
2022/01/11 01:35:26;;;;;;;7.33;3.00;;;2.60;98.00;;;;;;5113927;28;21009;-67
2022/01/11 01:37:54;;;;;;;1.97;1.80;;;2.70;98.00;;;;;;5113351;28;20846;-68
2022/01/11 01:40:21;;;;;;;1.53;1.40;;;2.70;98.00;;;;;;5113300;28;20960;-67
2022/01/11 01:42:51;;;;;;;1.10;1.10;;;2.70;98.00;;;;;;5113420;28;20868;-67
2022/01/11 01:45:23;;;;;;;1.53;1.40;;;2.70;98.00;;;;;;5113335;28;20533;-67
2022/01/11 01:47:56;;;;;;;2.10;1.83;;;2.70;98.00;;;;;;5113103;28;20490;-68
2022/01/11 01:50:26;;;;;;;1.93;1.53;;;2.80;98.00;;;;;;5113002;28;20458;-68
2022/01/11 01:52:54;;;;;;;2.40;2.20;;;2.70;98.00;;;;;;5113061;28;20971;-67
2022/01/11 01:55:23;;;;;;;1.20;1.20;;;2.60;98.00;;;;;;5112855;28;20463;-67
2022/01/11 01:57:51;;;;;;;4.33;2.00;;;2.50;98.00;;;;;;5112481;28;20822;-68
2022/01/11 02:00:22;;;;;;;1.93;1.83;;;2.40;98.00;;;;;;5112682;28;20507;-67
2022/01/11 02:02:49;;;;;;;4.13;2.27;;;2.40;98.00;;;;;;5111711;28;20511;-68
2022/01/11 02:05:16;;;;;;;1.47;1.37;;;2.40;98.00;;;;;;5113175;28;20508;-67
2022/01/11 02:07:45;;;;;;;2.27;1.67;;;2.40;98.00;;;;;;5112677;28;20486;-67
2022/01/11 02:10:12;;;;;;;2.80;2.30;;;2.50;98.00;;;;;;5112164;28;20451;-68
2022/01/11 02:12:39;;;;;;;1.40;1.40;;;2.50;98.00;;;;;;5111867;28;20455;-67
2022/01/11 02:15:07;;;;;;;1.37;1.37;;;2.40;98.00;;;;;;5112576;27;21137;-69
2022/01/11 02:17:35;;;;;;;1.53;1.50;;;2.40;98.00;;;;;;5112839;28;20870;-68
2022/01/11 02:20:03;;;;;;;1.53;1.47;;;2.40;98.00;;;;;;5112500;28;20482;-68
2022/01/11 02:22:32;;;;;;;1.90;1.67;;;2.50;98.00;;;;;;5112783;28;20487;-68
2022/01/11 02:24:59;;;;;;;1.60;1.30;;;2.60;98.00;;;;;;5112649;28;20502;-69
2022/01/11 02:27:27;;;;;;;1.40;1.30;;;2.70;98.00;;;;;;5112604;28;20491;-67
2022/01/11 02:29:55;;;;;;;1.30;1.27;;;2.80;98.00;;;;;;5111430;28;20455;-68
2022/01/11 02:32:25;;;;;;;2.70;1.83;;;2.80;98.00;;;;;;5112832;28;20458;-67
2022/01/11 02:34:52;;;;;;;1.93;1.30;;;2.80;98.00;;;;;;5112569;28;20450;-68
2022/01/11 02:37:19;;;;;;;2.70;2.10;;;2.80;98.00;;;;;;5112323;28;20476;-68
2022/01/11 02:39:48;;;;;;;2.00;1.90;;;2.90;98.00;;;;;;5112349;28;20570;-67
2022/01/11 02:42:15;;;;;;;1.20;1.20;;;2.90;98.00;;;;;;5112370;28;20487;-67
2022/01/11 02:44:42;;;;;;;1.50;1.50;;;2.90;98.00;;;;;;5112268;28;20451;-69
2022/01/11 02:47:09;;;;;;;1.50;1.47;;;3.00;98.00;;;;;;5112251;28;20506;-67
2022/01/11 02:49:36;;;;;;;1.90;1.80;;;3.10;98.00;;;;;;5112198;28;20451;-68
2022/01/11 02:52:03;;;;;;;5.63;2.00;;;3.00;98.00;;;;;;5112539;28;20450;-67
2022/01/11 02:54:30;;;;;;;1.70;1.40;;;3.00;98.00;;;;;;5112345;28;20498;-68
2022/01/11 02:56:58;;;;;;;2.60;2.40;;;2.90;98.00;;;;;;5112294;28;20530;-67
2022/01/11 02:59:26;;;;;;;1.10;1.00;;;2.90;98.00;;;;;;5112463;28;20532;-68
2022/01/11 03:01:53;;;;;;;2.70;1.73;;;2.80;98.00;;;;;;5112191;28;20455;-68
2022/01/11 03:04:20;;;;;;;1.30;1.20;;;2.70;98.00;;;;;;5112504;28;20487;-67
2022/01/11 03:06:48;;;;;;;2.17;1.93;;;2.60;98.00;;;;;;5112430;28;20498;-67
2022/01/11 03:09:15;;;;;;;2.23;2.03;;;2.60;98.00;;;;;;5112133;28;20450;-67
2022/01/11 03:11:42;;;;;;;1.50;1.50;;;2.50;98.00;;;;;;5112016;28;20928;-68
2022/01/11 03:14:11;;;;;;;2.60;2.33;;;2.50;98.00;;;;;;5112280;28;20482;-68
2022/01/11 03:16:38;;;;;;;2.00;1.77;;;2.50;98.00;;;;;;5110871;28;20493;-67
2022/01/11 03:19:05;;;;;;;4.33;3.20;;;2.60;98.00;;;;;;5111657;28;21016;-67
2022/01/11 03:21:33;;;;;;;3.20;2.43;;;2.50;98.00;;;;;;5115746;28;20999;-68
2022/01/11 03:24:01;;;;;;;1.37;1.27;;;2.60;98.00;;;;;;5114877;28;20516;-68
2022/01/11 03:26:28;;;;;;;2.40;2.10;;;2.60;98.00;;;;;;5115919;28;21069;-67
2022/01/11 03:28:55;;;;;;;2.53;1.40;;;2.60;98.00;;;;;;5115940;28;20979;-67
2022/01/11 03:31:30;;;;;;;1.40;1.37;;;2.40;98.00;;;;;;5114786;28;20467;-66
2022/01/11 03:33:57;;;;;;;1.70;1.60;;;2.40;98.00;;;;;;5115983;28;20454;-69
2022/01/11 03:36:24;;;;;;;1.83;1.43;;;2.30;98.00;;;;;;5115757;28;20949;-67
2022/01/11 03:38:51;;;;;;;1.70;1.40;;;2.30;98.00;;;;;;5115750;28;20486;-68
2022/01/11 03:41:18;;;;;;;2.53;2.33;;;2.30;98.00;;;;;;5115698;28;20868;-67
2022/01/11 03:43:45;;;;;;;1.50;1.47;;;2.20;98.00;;;;;;5115624;28;20459;-67
2022/01/11 03:46:12;;;;;;;1.23;1.20;;;2.30;98.00;;;;;;5115350;28;20812;-68
2022/01/11 03:48:41;;;;;;;2.90;1.67;;;2.30;98.00;;;;;;5115678;28;20460;-68
2022/01/11 03:51:08;;;;;;;1.80;1.73;;;2.30;98.00;;;;;;5115569;28;20803;-68
2022/01/11 03:53:49;;;;;;;2.07;1.93;;;2.30;98.00;;;;;;5115522;28;20509;-68
2022/01/11 03:56:22;;;;;;;1.67;1.37;;;2.30;98.00;;;;;;5115614;28;20481;-66
2022/01/11 03:58:51;;;;;;;5.20;3.60;;;2.20;98.00;;;;;;5115404;28;20514;-67
2022/01/11 04:01:18;;;;;;;2.03;1.80;;;2.00;98.00;;;;;;5115483;28;20782;-67
2022/01/11 04:03:50;;;;;;;1.77;1.60;;;2.10;98.00;;;;;;5114269;28;20478;-68
2022/01/11 04:06:17;;;;;;;1.70;1.50;;;2.20;98.00;;;;;;5113781;28;20450;-68
2022/01/11 04:08:45;;;;;;;2.30;2.10;;;2.30;98.00;;;;;;5115511;28;20487;-68
2022/01/11 04:11:13;;;;;;;2.57;2.10;;;2.30;98.00;;;;;;5115251;28;20478;-67
2022/01/11 04:13:40;;;;;;;2.90;2.00;;;2.30;98.00;;;;;;5115310;28;20494;-69
2022/01/11 04:16:08;;;;;;;2.90;2.60;;;2.40;98.00;;;;;;5115293;28;20466;-67
2022/01/11 04:18:36;;;;;;;2.80;2.40;;;2.50;98.00;;;;;;5113861;28;20455;-68
2022/01/11 04:21:05;;;;;;;2.43;1.53;;;2.50;98.00;;;;;;5115166;28;21039;-67
2022/01/11 04:23:32;;;;;;;1.97;1.40;;;2.40;98.00;;;;;;5115373;28;20495;-67
2022/01/11 04:25:59;;;;;;;1.80;1.73;;;2.30;98.00;;;;;;5115063;28;20494;-67
2022/01/11 04:28:27;;;;;;;4.77;2.30;;;2.30;98.00;;;;;;5114899;28;20941;-68
2022/01/11 04:30:58;;;;;;;1.60;1.60;;;2.40;98.00;;;;;;5114723;28;20438;-69
2022/01/11 04:33:25;;;;;;;5.30;1.93;;;2.50;98.00;;;;;;5114296;28;20447;-68
2022/01/11 04:35:52;;;;;;;1.30;1.30;;;2.50;98.00;;;;;;5113566;28;20462;-68
2022/01/11 04:38:23;;;;;;;1.10;1.00;;;2.40;98.00;;;;;;5114754;28;20499;-67
2022/01/11 04:40:51;;;;;;;1.93;1.60;;;2.30;98.00;;;;;;5114193;28;20578;-67
2022/01/11 04:43:19;;;;;;;3.47;2.37;;;2.30;98.00;;;;;;5114391;28;20451;-67
2022/01/11 04:45:47;;;;;;;2.43;2.23;;;2.20;98.00;;;;;;5114402;28;20479;-67
2022/01/11 04:48:15;;;;;;;3.03;2.30;;;2.20;98.00;;;;;;5114312;28;20469;-67
2022/01/11 04:50:45;;;;;;;3.03;1.80;;;2.10;98.00;;;;;;5114011;28;20545;-67
2022/01/11 04:53:12;;;;;;;1.40;1.30;;;2.10;98.00;;;;;;5114400;28;20466;-68
2022/01/11 04:55:40;;;;;;;1.50;1.33;;;2.00;98.00;;;;;;5112901;28;20461;-67
2022/01/11 04:58:08;;;;;;;1.80;1.57;;;2.00;98.00;;;;;;5114251;28;20483;-67
2022/01/11 05:00:36;;;;;;;1.57;1.50;;;2.00;98.00;;;;;;5114184;28;20537;-67
2022/01/11 05:03:04;;;;;;;1.60;1.50;;;2.10;98.00;;;;;;5114300;28;20508;-67
2022/01/11 05:05:31;;;;;;;2.13;1.73;;;2.20;98.00;;;;;;5114234;28;20454;-67
2022/01/11 05:08:01;;;;;;;1.40;1.30;;;2.20;98.00;;;;;;5114186;28;20486;-67
2022/01/11 05:10:29;;;;;;;2.53;1.97;;;2.20;98.00;;;;;;5114016;28;20474;-68
2022/01/11 05:12:57;;;;;;;2.83;2.30;;;2.20;98.00;;;;;;5114133;28;20482;-70
2022/01/11 05:15:25;;;;;;;1.73;1.67;;;2.30;98.00;;;;;;5114109;28;20541;-67
2022/01/11 05:17:52;;;;;;;1.63;1.63;;;2.30;98.00;;;;;;5113955;28;20551;-67
2022/01/11 05:20:20;;;;;;;1.63;1.57;;;2.40;98.00;;;;;;5112768;28;20578;-67
2022/01/11 05:22:47;;;;;;;1.77;1.77;;;2.40;98.00;;;;;;5113974;28;20479;-67
2022/01/11 05:25:15;;;;;;;1.77;1.67;;;2.60;98.00;;;;;;5113822;28;20486;-67
2022/01/11 05:27:43;;;;;;;2.13;2.00;;;2.60;98.00;;;;;;5113784;28;20459;-67
2022/01/11 05:30:12;;;;;;;3.53;2.83;;;2.50;98.00;;;;;;5113711;28;20458;-68
2022/01/11 05:32:41;;;;;;;1.47;1.10;;;2.50;98.00;;;;;;5113428;28;21143;-67
2022/01/11 05:35:10;;;;;;;3.97;2.37;;;2.50;98.00;;;;;;5113764;28;20479;-67
2022/01/11 05:37:37;;;;;;;2.33;1.90;;;2.50;98.00;;;;;;5113618;28;20455;-67
2022/01/11 05:40:08;;;;;;;2.23;1.83;;;2.40;98.00;;;;;;5113471;28;20483;-68
2022/01/11 05:42:36;;;;;;;1.10;1.10;;;2.40;98.00;;;;;;5113691;28;21035;-68
2022/01/11 05:45:05;;;;;;;4.33;2.60;;;2.40;98.00;;;;;;5113444;28;20547;-67
2022/01/11 05:47:33;;;;;;;2.80;1.83;;;2.50;98.00;;;;;;5113421;28;20604;-67
2022/01/11 05:50:03;;;;;;;1.30;1.20;;;2.50;98.00;;;;;;5113293;28;20458;-68
2022/01/11 05:52:31;;;;;;;1.83;1.70;;;2.50;98.00;;;;;;5113303;28;20507;-68
2022/01/11 05:54:58;;;;;;;4.87;3.20;;;2.60;98.00;;;;;;5112917;28;20899;-67
2022/01/11 05:57:26;;;;;;;2.40;1.90;;;2.50;98.00;;;;;;5112890;28;20547;-68
2022/01/11 05:59:53;;;;;;;1.93;1.87;;;2.50;98.00;;;;;;5112887;28;20535;-67
2022/01/11 06:02:20;;;;;;;1.60;1.57;;;2.50;98.00;;;;;;5113026;28;20866;-68
2022/01/11 06:04:49;;;;;;;2.07;1.93;;;2.60;98.00;;;;;;5112762;28;20534;-68
2022/01/11 06:07:16;;;;;;;1.93;1.67;;;2.60;98.00;;;;;;5112899;28;20495;-69
2022/01/11 06:09:43;;;;;;;1.93;1.67;;;2.60;98.00;;;;;;5112613;28;20459;-67
2022/01/11 06:12:11;;;;;;;3.77;2.77;;;2.50;98.00;;;;;;5113011;28;20461;-67
2022/01/11 06:14:38;;;;;;;2.50;2.33;;;2.60;98.00;;;;;;5112645;28;20554;-68
2022/01/11 06:17:05;;;;;;;1.97;1.60;;;2.60;98.00;;;;;;5112645;28;20550;-68
2022/01/11 06:19:34;;;;;;;1.30;1.20;;;2.50;98.00;;;;;;5112675;28;20514;-69
2022/01/11 06:22:02;;;;;;;1.40;1.30;;;2.50;98.00;;;;;;5112714;28;20455;-67
2022/01/11 06:24:30;;;;;;;1.73;1.67;;;2.50;98.00;;;;;;5112770;28;20483;-68
2022/01/11 06:26:57;;;;;;;1.57;1.43;;;2.60;98.00;;;;;;5112461;28;20961;-69
2022/01/11 06:29:24;;;;;;;1.30;1.30;;;2.50;98.00;;;;;;5112643;28;20478;-67
2022/01/11 06:31:51;;;;;;;2.27;1.93;;;2.60;98.00;;;;;;5112398;28;20486;-67
2022/01/11 06:34:18;;;;;;;1.37;1.30;;;2.60;98.00;;;;;;5112543;28;20510;-68
2022/01/11 06:36:46;;;;;;;1.40;1.10;;;2.70;98.00;;;;;;5112393;28;20510;-68
2022/01/11 06:39:14;;;;;;;1.77;1.67;;;2.60;98.00;;;;;;5112453;28;21003;-68
2022/01/11 06:41:42;;;;;;;2.57;2.00;;;2.70;98.00;;;;;;5110850;28;20459;-67
2022/01/11 06:44:10;;;;;;;2.27;1.50;;;2.70;98.00;;;;;;5112488;28;20508;-67
2022/01/11 06:46:37;;;;;;;2.20;1.97;;;2.60;98.00;;;;;;5112330;28;20463;-68
2022/01/11 06:49:05;;;;;;;1.60;1.40;;;2.60;98.00;;;;;;5111613;28;20523;-66
2022/01/11 06:51:32;;;;;;;2.20;2.00;;;2.50;98.00;;;;;;5111559;28;20461;-68
2022/01/11 06:53:59;;;;;;;3.07;2.83;;;2.30;98.00;;;;;;5111016;28;20483;-67
2022/01/11 06:56:29;;;;;;;3.50;2.07;;;2.20;98.00;;;;;;5112065;28;20548;-67
2022/01/11 06:58:56;;;;;;;1.37;1.30;;;2.20;98.00;;;;;;5112231;28;20508;-68
2022/01/11 07:01:23;;;;;;;2.50;1.93;;;2.20;98.00;;;;;;5112266;28;20523;-68
2022/01/11 07:03:50;;;;;;;1.73;1.70;;;2.50;98.00;;;;;;5112272;28;20483;-67
2022/01/11 07:06:17;;;;;;;1.57;1.50;;;2.50;98.00;;;;;;5112118;28;20498;-67
2022/01/11 07:08:44;;;;;;;1.20;1.20;;;2.60;98.00;;;;;;5111906;28;20466;-67
2022/01/11 07:11:13;;;;;;;2.17;1.77;;;2.70;98.00;;;;;;5112509;28;20493;-67
2022/01/11 07:13:42;;;;;;;7.40;2.63;;;2.70;98.00;;;;;;5111225;28;21056;-67
2022/01/11 07:16:10;;;;;;;1.37;1.37;;;2.80;98.00;;;;;;5112158;28;20490;-68
2022/01/11 07:18:38;;;;;;;2.40;2.27;;;2.80;98.00;;;;;;5111822;28;20959;-68
2022/01/11 07:21:07;;;;;;;1.73;1.70;;;2.80;98.00;;;;;;5111768;28;20893;-68
2022/01/11 07:23:34;;;;;;;1.83;1.63;;;2.80;98.00;;;;;;5111099;28;20837;-68
2022/01/11 07:26:02;;;;;;;2.57;1.73;;;2.80;98.00;;;;;;5112032;28;20905;-68
2022/01/11 07:28:31;;;;;;;1.87;1.80;;;2.80;98.00;;;;;;5110541;28;20463;-68
2022/01/11 07:30:59;;;;;;;2.33;1.90;;;2.80;98.00;;;;;;5110212;28;20461;-69
2022/01/11 07:33:27;;;;;;;3.00;2.33;;;2.80;98.00;;;;;;5111555;28;20542;-68
2022/01/11 07:35:56;;;;;;;2.03;1.90;;;2.70;98.00;;;;;;5111724;28;20459;-68
2022/01/11 07:38:22;;;;;;;1.30;1.20;;;2.80;98.00;;;;;;5111862;28;20530;-67
2022/01/11 07:40:50;;;;;;;1.40;1.30;;;2.80;98.00;;;;;;5110397;28;20506;-67
2022/01/11 07:43:17;;;;;;;14.70;3.27;;;2.80;98.00;;;;;;5110572;28;20480;-68
2022/01/11 07:45:43;;;;;;;1.20;1.20;;;2.70;98.00;;;;;;5111669;28;20534;-68
2022/01/11 07:48:12;;;;;;;3.03;2.70;;;2.70;98.00;;;;;;5111599;28;20520;-68
2022/01/11 07:50:39;;;;;;;3.40;2.10;;;2.70;98.00;;;;;;5111602;28;20493;-67
2022/01/11 07:53:07;;;;;;;1.80;1.70;;;2.90;98.00;;;;;;5111615;28;20502;-68
2022/01/11 07:55:34;;;;;;;3.43;2.10;;;2.90;98.00;;;;;;5111580;28;20498;-69
2022/01/11 07:58:01;;;;;;;3.73;3.20;;;2.90;98.00;;;;;;5110472;28;20498;-68
2022/01/11 08:00:29;;;;;;;3.43;2.67;;;2.80;98.00;;;;;;5111572;28;20571;-68
2022/01/11 08:02:56;;;;;;;1.67;1.57;;;2.80;98.00;;;;;;5111595;28;20925;-68
2022/01/11 08:05:26;;;;;;;2.20;1.93;;;2.90;98.00;;;;;;5111471;28;20495;-68
2022/01/11 08:07:53;;;;;;;2.03;1.67;;;2.90;98.00;;;;;;5113124;28;20508;-67
2022/01/11 08:10:20;;;;;;;1.87;1.77;;;2.90;98.00;;;;;;5115254;28;20451;-70
2022/01/11 08:12:47;;;;;;;1.70;1.70;;;2.90;98.00;;;;;;5115314;28;20485;-68
2022/01/11 08:15:14;;;;;;;2.80;2.00;;;2.90;98.00;;;;;;5115374;28;20557;-67
2022/01/11 08:17:41;;;;;;;2.17;1.90;;;3.00;98.00;;;;;;5115270;28;20537;-68
2022/01/11 08:20:09;;;;;;;3.00;1.87;;;3.00;98.00;;;;;;5114907;28;20525;-68
2022/01/11 08:22:38;;;;;;;2.17;2.00;;;3.00;98.00;;;;;;5115326;28;20490;-68
2022/01/11 08:25:06;;;;;;;3.83;2.80;;;3.10;98.00;;;;;;5113667;28;20477;-68
2022/01/11 08:27:34;;;;;;;1.60;1.50;;;3.00;98.00;;;;;;5115108;28;20859;-67
2022/01/11 08:30:01;;;;;;;1.60;1.57;;;3.10;98.00;;;;;;5115099;28;20455;-67
2022/01/11 08:32:28;;;;;;;2.77;2.20;;;3.10;98.00;;;;;;5115107;28;20511;-69
2022/01/11 08:34:55;;;;;;;2.23;1.73;;;3.20;98.00;;;;;;5114994;28;20489;-68
2022/01/11 08:37:25;;;;;;;2.13;2.00;;;3.20;98.00;;;;;;5115066;28;20483;-68
2022/01/11 08:39:53;;;;;;;3.67;1.53;;;3.20;98.00;;;;;;5113334;28;20465;-70
2022/01/11 08:42:22;;;;;;;1.30;1.13;;;3.10;98.00;;;;;;5115193;28;20451;-68
2022/01/11 08:44:50;;;;;;;3.10;2.80;;;3.10;98.00;;;;;;5114955;28;20454;-68
2022/01/11 08:47:19;;;;;;;4.20;1.77;;;3.30;98.00;;;;;;5114660;28;20470;-68
2022/01/11 08:49:47;;;;;;;3.17;2.93;;;3.30;98.00;;;;;;5114530;28;20535;-68
2022/01/11 08:52:15;;;;;;;1.30;1.23;;;3.30;98.00;;;;;;5114324;28;20498;-68
2022/01/11 08:54:42;;;;;;;1.50;1.40;;;3.20;98.00;;;;;;5097526;28;20459;-68
2022/01/11 08:57:10;;;;;;;2.57;1.70;;;3.20;98.00;;;;;;5108528;28;20451;-69
2022/01/11 08:59:38;;;;;;;2.60;2.47;;;3.20;98.00;;;;;;5071942;28;20814;-69
2022/01/11 09:02:11;;;;;;;1.87;1.87;;;3.20;98.00;;;;;;5097544;28;20579;-70
2022/01/11 09:04:38;;;;;;;1.50;1.40;;;3.30;98.00;;;;;;5092978;28;20456;-71
2022/01/11 09:07:06;;;;;;;2.13;1.67;;;3.40;98.00;;;;;;5091133;28;20495;-69
2022/01/11 09:09:33;;;;;;;3.83;2.40;;;3.60;98.00;;;;;;5095804;28;20958;-69
2022/01/11 09:12:03;;;;;;;4.33;2.00;;;3.50;98.00;;;;;;5104258;28;20491;-68
2022/01/11 09:14:32;;;;;;;1.93;1.80;;;3.50;98.00;;;;;;5092323;28;20452;-69
2022/01/11 09:17:02;;;;;;;1.50;1.40;;;3.70;98.00;;;;;;5105124;28;20455;-70
2022/01/11 09:19:30;;;;;;;1.37;1.33;;;3.90;98.00;;;;;;5104347;28;20534;-68
2022/01/11 09:21:57;;;;;;;1.40;1.40;;;3.90;98.00;;;;;;5106219;28;20486;-69
2022/01/11 09:24:29;;;;;;;3.17;2.27;;;3.90;98.00;;;;;;5108532;28;20546;-68
2022/01/11 09:26:57;;;;;;;1.10;1.10;;;3.90;98.00;;;;;;5094917;28;20812;-68
2022/01/11 09:29:26;;;;;;;1.60;1.50;;;3.80;98.00;;;;;;5101792;28;20449;-68
2022/01/11 09:31:56;;;;;;;1.77;1.70;;;3.90;98.00;;;;;;5101161;28;20453;-69
2022/01/11 09:34:24;;;;;;;1.60;1.50;;;3.90;98.00;;;;;;5093089;28;20819;-69
2022/01/11 09:36:51;;;;;;;3.53;3.07;;;3.90;98.00;;;;;;5092427;28;20539;-69
2022/01/11 09:39:21;;;;;;;2.27;1.97;;;4.10;98.00;;;;;;5106112;28;20454;-69
2022/01/11 09:41:48;;;;;;;3.30;2.47;;;4.10;98.00;;;;;;5108378;28;20528;-70
2022/01/11 09:44:18;;;;;;;2.17;1.70;;;4.00;98.00;;;;;;5102933;28;20455;-68
2022/01/11 09:46:45;;;;;;;1.57;1.57;;;4.20;98.00;;;;;;5090949;28;20963;-68
2022/01/11 09:49:13;;;;;;;1.70;1.60;;;4.10;98.00;;;;;;5097442;28;20452;-69
2022/01/11 09:51:41;;;;;;;1.40;1.30;;;4.20;98.00;;;;;;5102367;28;20876;-70
2022/01/11 09:54:09;;;;;;;2.47;2.27;;;4.20;98.00;;;;;;5095742;28;20483;-68
2022/01/11 09:56:37;;;;;;;1.50;1.40;;;4.20;98.00;;;;;;5095189;28;20539;-70
2022/01/11 09:59:05;;;;;;;2.30;2.10;;;4.30;98.00;;;;;;5097339;28;20494;-69
2022/01/11 10:01:35;;;;;;;1.70;1.60;;;4.30;98.00;;;;;;5103813;28;20496;-68
2022/01/11 10:04:06;;;;;;;2.13;1.90;;;4.50;98.00;;;;;;5097241;28;20948;-68
2022/01/11 10:06:37;;;;;;;1.70;1.60;;;4.30;98.00;;;;;;5108008;28;20532;-69
2022/01/11 10:09:16;;;;;;;1.83;1.73;;;4.40;98.00;;;;;;5086436;28;20456;-69
2022/01/11 10:11:45;;;;;;;2.60;2.40;;;4.60;98.00;;;;;;5101539;28;20469;-68
2022/01/11 10:14:24;;;;;;;1.47;1.37;;;4.70;98.00;;;;;;5099140;28;20452;-68
2022/01/11 10:17:05;;;;;;;2.13;1.67;;;4.70;98.00;;;;;;5099965;28;21121;-68
2022/01/11 10:19:32;;;;;;;2.20;1.60;;;4.70;98.00;;;;;;5084204;28;20485;-69
2022/01/11 10:22:03;;;;;;;1.60;1.40;;;4.70;98.00;;;;;;5090574;28;20527;-69
2022/01/11 10:24:41;;;;;;;2.13;2.00;;;4.70;98.00;;;;;;5100013;28;20480;-70
2022/01/11 10:27:14;;;;;;;1.60;1.50;;;4.70;98.00;;;;;;5096549;28;20479;-67
2022/01/11 10:29:44;;;;;;;2.53;2.33;;;4.80;98.00;;;;;;5099791;28;20507;-69
2022/01/11 10:32:14;;;;;;;2.73;2.53;;;4.90;98.00;;;;;;5091172;28;20492;-69
2022/01/11 10:34:47;;;;;;;2.33;2.13;;;5.00;98.00;;;;;;5092291;28;20502;-70
2022/01/11 10:37:17;;;;;;;1.80;1.70;;;5.00;98.00;;;;;;5091057;28;20452;-71
2022/01/11 10:39:45;;;;;;;2.43;1.93;;;5.10;98.00;;;;;;5090901;28;20986;-69
2022/01/11 10:42:27;;;;;;;1.67;1.57;;;5.20;98.00;;;;;;5090829;28;20861;-71
2022/01/11 10:44:58;;;;;;;1.93;1.60;;;5.40;98.00;;;;;;5103462;28;20547;-69
2022/01/11 10:47:28;;;;;;;2.40;2.00;;;5.50;98.00;;;;;;5100854;28;20469;-71
2022/01/11 10:50:00;;;;;;;2.03;1.33;;;5.50;98.00;;;;;;5094961;28;20462;-70
2022/01/11 10:52:32;;;;;;;5.43;2.10;;;5.60;98.00;;;;;;5107382;28;21042;-70
2022/01/11 10:55:02;;;;;;;1.47;1.47;;;5.70;98.00;;;;;;5097733;28;20813;-70
2022/01/11 10:57:30;;;;;;;1.53;1.50;;;5.80;98.00;;;;;;5106865;28;20447;-70
2022/01/11 11:00:23;;;;;;;2.27;2.10;;;5.80;98.00;;;;;;5100583;28;20486;-71
2022/01/11 11:02:56;;;;;;;1.60;1.50;;;5.80;98.00;;;;;;5081964;28;20586;-71
2022/01/11 11:05:35;;;;;;;1.67;1.63;;;5.90;98.00;;;;;;5099070;28;20812;-71
2022/01/11 11:08:10;;;;;;;4.27;2.50;;;6.00;98.00;;;;;;5103651;28;20965;-68
2022/01/11 11:10:47;;;;;;;2.73;1.67;;;6.00;98.00;;;;;;5109545;28;20458;-68
2022/01/11 11:13:23;;;;;;;1.30;1.30;;;6.10;98.00;;;;;;5110175;28;20952;-69
2022/01/11 11:15:51;;;;;;;1.97;1.67;;;6.20;98.00;;;;;;5109976;28;20535;-68
2022/01/11 11:18:25;;;;;;;2.33;1.73;;;6.20;98.00;;;;;;5110362;28;20544;-68
2022/01/11 11:20:52;;;;;;;2.67;1.73;;;6.10;98.00;;;;;;5110821;28;20535;-67
2022/01/11 11:23:20;;;;;;;1.77;1.77;;;6.20;98.00;;;;;;5111727;28;20447;-68
2022/01/11 11:25:47;;;;;;;1.20;1.20;;;6.30;98.00;;;;;;5111162;28;20487;-68
2022/01/11 11:28:15;;;;;;;1.87;1.77;;;6.30;98.00;;;;;;5111348;28;20866;-68
2022/01/11 11:30:48;;;;;;;6.70;3.17;;;6.30;98.00;;;;;;5111177;28;20549;-68
2022/01/11 11:33:19;;;;;;;1.30;1.30;;;6.10;98.00;;;;;;5111275;28;20882;-68
2022/01/11 11:35:49;;;;;;;3.30;2.20;;;6.00;98.00;;;;;;5110946;28;20942;-68
2022/01/11 11:38:20;;;;;;;1.67;1.57;;;5.90;98.00;;;;;;5111047;28;20500;-69
2022/01/11 11:40:53;;;;;;;1.40;1.30;;;5.80;98.00;;;;;;5111765;28;20457;-68
2022/01/11 11:43:22;;;;;;;1.50;1.47;;;5.80;98.00;;;;;;5114892;28;20643;-67
2022/01/11 11:45:49;;;;;;;1.60;1.50;;;5.70;98.00;;;;;;5114858;28;20451;-68
2022/01/11 11:48:19;;;;;;;1.20;1.00;;;5.70;98.00;;;;;;5115019;28;20898;-67
2022/01/11 11:50:52;;;;;;;1.67;1.53;;;5.90;98.00;;;;;;5114734;28;21063;-67
2022/01/11 11:53:24;;;;;;;1.80;1.40;;;6.10;98.00;;;;;;5115122;27;20734;-67
2022/01/11 11:56:12;;;;;;;2.70;1.30;;;6.10;98.00;;;;;;5114689;28;20487;-67
2022/01/11 11:58:43;;;;;;;1.30;1.20;;;6.00;98.00;;;;;;5114730;28;20497;-69
2022/01/11 12:01:45;;;;;;;1.30;1.27;;;6.00;98.00;;;;;;5114648;28;20459;-68
2022/01/11 12:04:15;;;;;;;1.20;1.13;;;6.00;98.00;;;;;;5107925;28;20451;-67
2022/01/11 12:06:43;;;;;;;1.87;1.77;;;5.90;98.00;;;;;;5113462;28;20532;-68
2022/01/11 12:09:12;;;;;;;1.43;1.40;;;5.90;98.00;;;;;;5114765;28;20486;-69
2022/01/11 12:11:43;;;;;;;1.63;1.57;;;5.70;98.00;;;;;;5115482;28;20461;-68
2022/01/11 12:14:29;;;;;;;1.30;1.20;;;5.80;98.00;;;;;;5114999;28;20451;-68
2022/01/11 12:16:57;;;;;;;2.90;1.83;;;5.70;98.00;;;;;;5115171;28;20462;-69
2022/01/11 12:19:42;;;;;;;2.60;2.30;;;5.60;98.00;;;;;;5114688;28;20467;-68
2022/01/11 12:22:19;;;;;;;1.30;1.20;;;5.70;98.00;;;;;;5114307;28;20511;-68
2022/01/11 12:24:47;;;;;;;1.20;0.97;;;5.80;98.00;;;;;;5114218;28;20573;-68
2022/01/11 12:27:19;;;;;;;2.70;1.20;;;5.80;98.00;;;;;;5114310;28;20493;-69
2022/01/11 12:29:58;;;;;;;1.30;1.10;;;5.80;98.00;;;;;;5114238;28;20447;-67
2022/01/11 12:32:27;;;;;;;1.20;1.03;;;5.80;98.00;;;;;;5114275;28;20795;-69
2022/01/11 12:34:59;;;;;;;4.50;1.70;;;5.80;98.00;;;;;;5114137;28;20880;-69
2022/01/11 12:37:32;;;;;;;1.20;1.10;;;5.90;98.00;;;;;;5114156;28;20546;-69
2022/01/11 12:40:13;;;;;;;1.20;1.10;;;6.00;98.00;;;;;;5114124;28;20584;-69
2022/01/11 12:42:52;;;;;;;1.20;1.00;;;5.90;98.00;;;;;;5113783;28;20478;-69
2022/01/11 12:45:40;;;;;;;1.20;1.00;;;5.90;98.00;;;;;;5113850;28;20469;-69
2022/01/11 12:48:08;;;;;;;1.40;1.40;;;5.80;98.00;;;;;;5113789;28;20524;-69
2022/01/11 12:50:56;;;;;;;1.20;1.00;;;5.80;98.00;;;;;;5113821;28;20535;-69
2022/01/11 12:53:23;;;;;;;1.20;1.00;;;5.80;98.00;;;;;;5113449;28;20448;-69
2022/01/11 12:55:55;;;;;;;1.20;1.00;;;5.70;98.00;;;;;;5113819;28;20487;-69
2022/01/11 12:58:25;;;;;;;1.20;1.00;;;5.70;98.00;;;;;;5114066;28;20495;-69
2022/01/11 13:00:53;;;;;;;1.20;1.03;;;5.70;98.00;;;;;;5113748;28;20447;-69
2022/01/11 13:03:20;;;;;;;1.20;1.10;;;5.70;98.00;;;;;;5113482;28;20557;-69
2022/01/11 13:05:51;;;;;;;1.20;1.00;;;5.80;98.00;;;;;;5113526;28;20505;-69
2022/01/11 13:08:28;;;;;;;1.53;1.37;;;5.80;98.00;;;;;;5113500;28;20501;-69
2022/01/11 13:10:55;;;;;;;1.20;1.00;;;5.80;98.00;;;;;;5113493;28;20455;-69